Time;durP1;ratioP1;P1;durP2;ratioP2;P2;SDS_P1;SDS_P2;PMS_P1;PMS_P2;Temp;Humidity;BMP_temperature;BMP_pressure;BME280_temperature;BME280_humidity;BME280_pressure;Samples;Min_cycle;Max_cycle;Signal;HPM_P1;HPM_P2
2023/09/08 04:26:09;;;;;;;16.55;14.75;;;;;;;;;;4989481;28;20117;-78
2023/09/08 04:28:35;;;;;;;18.40;13.90;;;;;;;;;;4977251;28;20084;-79
2023/09/08 04:31:01;;;;;;;18.58;14.50;;;;;;;;;;4958425;28;20893;-79
2023/09/08 04:33:30;;;;;;;18.88;14.15;;;;;;;;;;4977406;28;20085;-77
2023/09/08 04:35:56;;;;;;;20.48;15.10;;;;;;;;;;4976217;28;20062;-78
2023/09/08 04:38:22;;;;;;;17.38;14.20;;;;;;;;;;4976561;28;20715;-78
2023/09/08 04:40:48;;;;;;;15.32;12.98;;;;;;;;;;4967795;28;20830;-79
2023/09/08 04:43:15;;;;;;;15.52;13.52;;;;;;;;;;4987758;28;20582;-78
2023/09/08 04:45:41;;;;;;;16.00;13.38;;;;;;;;;;4976365;28;20054;-78
2023/09/08 04:48:07;;;;;;;14.43;12.98;;;;;;;;;;4976649;28;20857;-78
2023/09/08 04:50:34;;;;;;;16.33;14.70;;;;;;;;;;4976215;28;20058;-78
2023/09/08 04:53:00;;;;;;;16.58;14.80;;;;;;;;;;4954346;28;20778;-78
2023/09/08 04:55:27;;;;;;;17.75;15.68;;;;;;;;;;4976139;28;20156;-77
2023/09/08 04:57:53;;;;;;;17.30;15.45;;;;;;;;;;4962581;28;20050;-80
2023/09/08 05:00:19;;;;;;;17.05;14.60;;;;;;;;;;4969320;28;20392;-76
2023/09/08 05:02:45;;;;;;;18.30;15.60;;;;;;;;;;4980171;28;20069;-78
2023/09/08 05:05:11;;;;;;;20.38;14.98;;;;;;;;;;4978837;28;20097;-78
2023/09/08 05:07:37;;;;;;;18.33;15.95;;;;;;;;;;4979852;28;20057;-76
2023/09/08 05:10:03;;;;;;;20.83;15.32;;;;;;;;;;4977061;28;20054;-80
2023/09/08 05:12:30;;;;;;;17.80;15.73;;;;;;;;;;4973136;28;20069;-77
2023/09/08 05:14:59;;;;;;;17.85;15.75;;;;;;;;;;4997215;28;20054;-78
2023/09/08 05:17:26;;;;;;;18.23;15.27;;;14.30;99.90;;;;;;4980626;28;20062;-78
2023/09/08 05:19:55;;;;;;;17.38;14.77;;;;;;;;;;4985052;28;20049;-80
2023/09/08 05:22:21;;;;;;;14.23;12.70;;;;;;;;;;4980012;28;20096;-79
2023/09/08 05:24:48;;;;;;;14.38;12.88;;;;;;;;;;4972386;28;20061;-80
2023/09/08 05:27:14;;;;;;;14.38;12.88;;;;;;;;;;4958663;28;20515;-77
2023/09/08 05:29:40;;;;;;;15.98;14.27;;;;;;;;;;4979014;28;20049;-77
2023/09/08 05:32:06;;;;;;;16.48;14.75;;;;;;;;;;4980248;28;20745;-78
2023/09/08 05:34:32;;;;;;;15.90;14.20;;;;;;;;;;4979122;28;20135;-78
2023/09/08 05:36:59;;;;;;;17.20;15.40;;;;;;;;;;4974959;28;20054;-76
2023/09/08 05:39:25;;;;;;;16.23;14.50;;;;;;;;;;4980446;28;20131;-77
2023/09/08 05:41:51;;;;;;;16.85;15.05;;;;;;;;;;4979763;28;20160;-76
2023/09/08 05:44:17;;;;;;;18.17;14.98;;;;;;;;;;4970870;28;20144;-78
2023/09/08 05:46:43;;;;;;;16.60;13.88;;;;;;;;;;4973763;28;20054;-79
2023/09/08 05:49:12;;;;;;;15.00;13.48;;;15.70;99.90;;;;;;4990709;28;20057;-78
2023/09/08 05:51:38;;;;;;;16.50;13.00;;;;;;;;;;4960619;28;20101;-79
2023/09/08 05:54:04;;;;;;;13.18;11.68;;;;;;;;;;4979423;28;20049;-76
2023/09/08 05:56:31;;;;;;;14.88;11.00;;;18.60;99.90;;;;;;4979731;28;20104;-79
2023/09/08 05:59:01;;;;;;;13.38;10.38;;;19.70;99.90;;;;;;4959954;28;20080;-78
2023/09/08 06:01:33;;;;;;;12.23;10.68;;;;;;;;;;4974836;28;20064;-79
2023/09/08 06:03:59;;;;;;;10.52;9.30;;;;;;;;;;4958158;28;20649;-79
2023/09/08 06:06:26;;;;;;;16.05;10.88;;;;;;;;;;4979273;28;20058;-81
2023/09/08 06:08:52;;;;;;;11.25;8.90;;;;;;;;;;4958407;28;20062;-78
2023/09/08 06:11:18;;;;;;;11.70;9.02;;;;;;;;;;4961324;28;20074;-78
2023/09/08 06:13:44;;;;;;;12.02;10.02;;;;;;;;;;4971139;28;20873;-77
2023/09/08 06:16:10;;;;;;;10.40;8.70;;;;;;;;;;4979353;28;20085;-80
2023/09/08 06:18:39;;;;;;;11.80;7.68;;;;;;;;;;4979420;28;20118;-80
2023/09/08 06:21:09;;;;;;;9.95;7.65;;;26.60;92.40;;;;;;4962308;28;20054;-78
2023/09/08 06:23:37;;;;;;;10.13;7.82;;;27.20;90.90;;;;;;4978041;28;20604;-80
2023/09/08 06:26:03;;;;;;;11.52;8.73;;;;;;;;;;4976947;28;20570;-76
2023/09/08 06:28:29;;;;;;;11.15;7.47;;;;;;;;;;4972681;28;20054;-77
2023/09/08 06:30:57;;;;;;;9.30;8.32;;;;;;;;;;4978677;28;20064;-81
2023/09/08 06:33:23;;;;;;;12.82;8.90;;;;;;;;;;4957247;28;20058;-77
2023/09/08 06:35:49;;;;;;;9.07;7.75;;;;;;;;;;4976865;28;20058;-79
2023/09/08 06:38:15;;;;;;;13.80;8.48;;;;;;;;;;4965263;28;20057;-76
2023/09/08 06:40:41;;;;;;;9.68;8.65;;;;;;;;;;4992229;28;20426;-78
2023/09/08 06:43:07;;;;;;;9.52;8.52;;;;;;;;;;4977168;28;20046;-79
2023/09/08 06:45:33;;;;;;;10.38;8.77;;;;;;;;;;4978339;28;20054;-78
2023/09/08 06:48:00;;;;;;;10.10;9.10;;;;;;;;;;4978656;28;20145;-76
2023/09/08 06:50:26;;;;;;;12.27;9.15;;;;;;;;;;4995632;28;20065;-74
2023/09/08 06:52:52;;;;;;;8.80;7.90;;;;;;;;;;4976799;28;20058;-77
2023/09/08 06:55:19;;;;;;;11.40;9.10;;;;;;;;;;4978145;28;20062;-77
2023/09/08 06:57:46;;;;;;;9.68;8.60;;;;;;;;;;4976044;28;20557;-79
2023/09/08 07:00:12;;;;;;;10.80;8.43;;;21.90;94.20;;;;;;4975318;28;20123;-81
2023/09/08 07:02:39;;;;;;;13.40;10.18;;;;;;;;;;4993745;28;20885;-75
2023/09/08 07:05:25;;;;;;;14.05;9.57;;;21.40;95.30;;;;;;4977072;28;20093;-79
2023/09/08 07:07:51;;;;;;;14.73;10.23;;;;;;;;;;4933204;28;20057;-77
2023/09/08 07:10:17;;;;;;;16.05;9.98;;;;;;;;;;4919918;28;20043;-75
2023/09/08 07:12:43;;;;;;;12.70;9.70;;;;;;;;;;4917561;29;20051;-78
2023/09/08 07:15:09;;;;;;;10.43;9.35;;;;;;;;;;4920438;28;20049;-80
2023/09/08 07:17:36;;;;;;;10.15;9.15;;;;;;;;;;4947043;28;20164;-79
2023/09/08 07:20:02;;;;;;;12.38;9.57;;;;;;;;;;4939111;28;20047;-76
2023/09/08 07:22:28;;;;;;;11.57;9.68;;;;;;;;;;4932282;28;20149;-78
2023/09/08 07:24:57;;;;;;;12.10;9.10;;;;;;;;;;4950729;28;20137;-77
2023/09/08 07:27:23;;;;;;;12.13;9.80;;;;;;;;;;4917700;28;20926;-78
2023/09/08 07:29:49;;;;;;;11.20;10.07;;;;;;;;;;4932920;28;20173;-74
2023/09/08 07:32:18;;;;;;;9.68;8.68;;;20.40;99.90;;;;;;4936609;28;20062;-79
2023/09/08 07:34:44;;;;;;;10.63;8.85;;;;;;;;;;4934195;28;20058;-78
2023/09/08 07:37:10;;;;;;;10.98;9.13;;;;;;;;;;4937081;28;20082;-79
2023/09/08 07:39:37;;;;;;;14.00;9.80;;;;;;;;;;4962757;28;20145;-76
2023/09/08 07:42:03;;;;;;;13.30;9.15;;;;;;;;;;4977042;28;20054;-75
2023/09/08 07:44:29;;;;;;;13.20;9.15;;;;;;;;;;4975403;28;20057;-76
2023/09/08 07:46:56;;;;;;;14.77;9.80;;;;;;;;;;4975991;28;20054;-74
2023/09/08 07:49:23;;;;;;;10.10;9.02;;;;;;;;;;4959481;28;20518;-74
2023/09/08 07:51:49;;;;;;;10.07;8.95;;;;;;;;;;4977082;28;20462;-77
2023/09/08 07:54:17;;;;;;;10.07;8.88;;;20.60;99.90;;;;;;4977048;28;20049;-77
2023/09/08 07:56:43;;;;;;;11.43;9.43;;;;;;;;;;4973765;28;20054;-80
2023/09/08 12:46:30;;;;;;;5.03;3.00;;;;;;;;;;4972293;28;20562;-76
2023/09/08 12:48:56;;;;;;;7.72;2.90;;;;;;;;;;4919299;28;20345;-73
2023/09/08 12:51:22;;;;;;;4.43;2.53;;;;;;;;;;4922133;28;20086;-74
2023/09/08 12:53:48;;;;;;;5.55;3.40;;;;;;;;;;4918738;28;20059;-75
2023/09/08 12:56:15;;;;;;;5.07;2.80;;;;;;;;;;4936218;28;20073;-76
2023/09/08 12:58:41;;;;;;;5.05;2.92;;;;;;;;;;4913890;28;20504;-76
2023/09/08 13:01:07;;;;;;;3.75;2.42;;;28.00;72.50;;;;;;4920406;28;20055;-77
2023/09/08 13:03:33;;;;;;;4.35;2.70;;;;;;;;;;4934374;28;20058;-78
2023/09/08 13:05:59;;;;;;;4.50;3.25;;;;;;;;;;4932181;28;20568;-77
2023/09/08 13:08:25;;;;;;;5.25;3.05;;;;;;;;;;4915162;28;20149;-77
2023/09/08 13:10:52;;;;;;;3.80;2.90;;;;;;;;;;4912402;28;20061;-78
2023/09/08 13:13:18;;;;;;;5.25;2.90;;;;;;;;;;4915549;28;20145;-73
2023/09/08 13:15:44;;;;;;;4.82;2.60;;;;;;;;;;4934241;28;20067;-70
2023/09/08 13:18:10;;;;;;;7.97;2.72;;;;;;;;;;4934552;28;20059;-78
2023/09/08 13:20:36;;;;;;;4.47;3.20;;;;;;;;;;4938649;28;20058;-79
2023/09/08 13:23:02;;;;;;;6.07;3.20;;;;;;;;;;4939078;28;20726;-78
2023/09/08 13:25:29;;;;;;;6.55;3.30;;;;;;;;;;4953083;28;20051;-77
2023/09/08 13:27:55;;;;;;;6.78;3.00;;;;;;;;;;4938172;28;20933;-76
2023/09/08 13:30:26;;;;;;;10.15;3.22;;;;;;;;;;4927824;28;20059;-80
2023/09/08 13:32:52;;;;;;;3.85;2.63;;;;;;;;;;4954840;28;20894;-79
2023/09/08 13:35:18;;;;;;;5.70;2.80;;;;;;;;;;4952390;28;20086;-76
2023/09/08 13:37:44;;;;;;;7.35;3.00;;;;;;;;;;4951606;28;20069;-76
2023/09/08 13:40:10;;;;;;;4.40;2.47;;;;;;;;;;4953681;28;20050;-77
2023/09/08 13:42:37;;;;;;;4.93;2.53;;;;;;;;;;4936837;28;20054;-74
2023/09/08 13:45:03;;;;;;;3.20;2.30;;;;;;;;;;4951137;28;20061;-77
2023/09/08 13:47:29;;;;;;;4.05;2.60;;;;;;;;;;4938852;28;20039;-76
2023/09/08 13:49:55;;;;;;;5.00;2.45;;;;;;;;;;4936224;28;20392;-75
2023/09/08 13:52:21;;;;;;;3.08;2.78;;;;;;;;;;4933847;28;20210;-77
2023/09/08 13:54:48;;;;;;;5.65;3.17;;;;;;;;;;4936789;28;20761;-75
2023/09/08 13:57:14;;;;;;;3.25;2.60;;;;;;;;;;4921026;28;20057;-76
2023/09/08 13:59:41;;;;;;;4.95;2.72;;;;;;;;;;4914427;28;20059;-72
2023/09/08 14:02:07;;;;;;;8.57;2.80;;;;;;;;;;4940338;28;20090;-76
2023/09/08 14:04:33;;;;;;;7.10;3.63;;;;;;;;;;4937522;28;20069;-76
2023/09/08 14:06:59;;;;;;;6.00;3.05;;;;;;;;;;4932321;28;20488;-79
2023/09/08 14:09:27;;;;;;;6.85;3.20;;;;;;;;;;4939124;28;20141;-80
2023/09/08 14:11:53;;;;;;;4.25;2.42;;;;;;;;;;4933723;28;20511;-76
2023/09/08 14:14:19;;;;;;;5.65;3.25;;;;;;;;;;4931068;28;20110;-73
2023/09/08 14:16:45;;;;;;;3.63;2.88;;;;;;;;;;4931429;28;20398;-75
2023/09/08 14:19:11;;;;;;;3.30;2.92;;;;;;;;;;4923570;28;20055;-75
2023/09/08 14:21:39;;;;;;;3.58;2.60;;;;;;;;;;4921743;28;20158;-75
2023/09/08 14:24:05;;;;;;;3.08;2.40;;;27.10;77.40;;;;;;4923498;28;20741;-75
2023/09/08 14:26:31;;;;;;;7.25;3.13;;;;;;;;;;4937067;28;20050;-74
2023/09/08 14:28:57;;;;;;;4.05;2.75;;;;;;;;;;4923202;28;20145;-76
2023/09/08 14:31:24;;;;;;;4.50;2.58;;;;;;;;;;4940108;28;20054;-73
2023/09/08 14:33:50;;;;;;;5.20;2.58;;;27.10;78.30;;;;;;4939042;28;20090;-76
2023/09/08 14:36:19;;;;;;;10.32;3.10;;;27.10;78.90;;;;;;4935555;28;20086;-77
2023/09/08 14:38:45;;;;;;;7.15;3.03;;;;;;;;;;4954584;28;20156;-74
2023/09/08 14:41:11;;;;;;;3.53;2.83;;;;;;;;;;4920789;28;20078;-79
2023/09/08 14:43:38;;;;;;;5.40;2.83;;;;;;;;;;4921539;28;20069;-75
2023/09/08 14:46:04;;;;;;;4.38;2.88;;;27.00;79.60;;;;;;4926233;28;20062;-73
2023/09/08 14:48:32;;;;;;;3.80;2.38;;;;;;;;;;4937740;28;20113;-75
2023/09/08 14:50:58;;;;;;;5.38;3.55;;;;;;;;;;4938461;28;20670;-77
2023/09/08 14:53:24;;;;;;;5.13;2.67;;;;;;;;;;4922813;28;20082;-73
2023/09/08 14:55:50;;;;;;;4.32;2.83;;;26.60;83.60;;;;;;4921880;28;20059;-75
2023/09/08 14:58:16;;;;;;;4.18;2.88;;;26.70;79.50;;;;;;4936832;28;20117;-73
2023/09/08 15:00:42;;;;;;;4.25;3.28;;;26.50;79.30;;;;;;4938095;28;20062;-73
2023/09/08 15:03:12;;;;;;;7.85;2.72;;;26.20;78.90;;;;;;4915848;28;20284;-75
2023/09/08 15:05:44;;;;;;;5.07;2.65;;;26.60;79.10;;;;;;4917650;28;20102;-75
2023/09/08 15:08:15;;;;;;;4.20;2.50;;;;;;;;;;4936056;28;20058;-76
2023/09/08 15:10:41;;;;;;;5.78;3.10;;;26.30;79.80;;;;;;4918490;28;20062;-73
2023/09/08 15:13:07;;;;;;;6.97;3.40;;;;;;;;;;4932286;28;20468;-76
2023/09/08 15:15:33;;;;;;;5.38;2.97;;;;;;;;;;4922492;28;20051;-76
2023/09/08 15:17:59;;;;;;;4.90;2.67;;;26.60;83.80;;;;;;4934592;28;20070;-73
2023/09/08 15:20:25;;;;;;;4.28;2.78;;;;;;;;;;4931575;28;20050;-77
2023/09/08 15:22:54;;;;;;;5.53;2.85;;;26.40;78.90;;;;;;4937009;28;20055;-77
2023/09/08 15:25:20;;;;;;;3.13;2.58;;;;;;;;;;4936162;28;20065;-75
2023/09/08 15:27:46;;;;;;;5.80;3.15;;;;;;;;;;4934906;28;20161;-76
2023/09/08 15:30:14;;;;;;;4.20;2.60;;;26.30;81.00;;;;;;4919151;28;20064;-76
2023/09/08 15:32:40;;;;;;;3.60;2.55;;;;;;;;;;4936117;28;20058;-74
2023/09/08 15:35:09;;;;;;;6.57;3.33;;;26.20;82.40;;;;;;4918606;28;20058;-75
2023/09/08 15:37:35;;;;;;;3.50;2.80;;;26.00;85.40;;;;;;4934885;28;20480;-72
2023/09/08 15:40:03;;;;;;;5.25;3.40;;;26.10;83.60;;;;;;4929470;28;20063;-77
2023/09/08 15:42:30;;;;;;;4.88;2.80;;;;;;;;;;4915578;28;20064;-75
2023/09/08 15:44:57;;;;;;;4.65;3.00;;;;;;;;;;4935022;28;20117;-71
2023/09/08 15:47:23;;;;;;;7.72;2.80;;;;;;;;;;4934512;28;20094;-74
2023/09/08 15:49:50;;;;;;;4.72;3.15;;;;;;;;;;4937655;28;20066;-74
2023/09/08 15:52:17;;;;;;;4.82;2.97;;;;;;;;;;4914931;29;20051;-75
2023/09/08 15:54:43;;;;;;;5.22;3.00;;;;;;;;;;4936359;28;20523;-75
2023/09/08 15:57:09;;;;;;;3.92;2.72;;;;;;;;;;4920879;28;20141;-75
2023/09/08 15:59:35;;;;;;;8.00;3.08;;;;;;;;;;4924041;28;20503;-75
2023/09/08 16:02:01;;;;;;;4.57;3.17;;;;;;;;;;4928917;28;20087;-75
2023/09/08 16:04:27;;;;;;;4.75;3.03;;;;;;;;;;4909533;28;20564;-76
2023/09/08 16:06:53;;;;;;;5.22;3.40;;;;;;;;;;4912302;28;20145;-75
2023/09/08 16:09:20;;;;;;;4.40;3.00;;;;;;;;;;4939365;28;20054;-71
2023/09/08 16:11:47;;;;;;;4.30;2.95;;;25.40;91.90;;;;;;4932481;28;20059;-73
2023/09/08 16:14:13;;;;;;;7.00;3.20;;;;;;;;;;4930963;28;20059;-73
2023/09/08 16:16:40;;;;;;;5.38;2.80;;;;;;;;;;4935186;28;20121;-77
2023/09/08 16:19:06;;;;;;;5.30;2.92;;;;;;;;;;4913097;28;20284;-77
2023/09/08 16:21:33;;;;;;;6.15;3.00;;;;;;;;;;4934816;28;20054;-75
2023/09/08 16:23:59;;;;;;;6.88;3.55;;;25.30;87.10;;;;;;4934864;28;20340;-75
2023/09/08 16:26:25;;;;;;;4.72;2.95;;;;;;;;;;4936939;28;20064;-75
2023/09/08 16:28:51;;;;;;;4.78;2.95;;;;;;;;;;4917881;28;20067;-75
2023/09/08 16:31:17;;;;;;;4.82;3.30;;;;;;;;;;4934677;28;20051;-76
2023/09/08 16:33:44;;;;;;;6.43;4.03;;;;;;;;;;4938156;28;20042;-75
2023/09/08 16:36:10;;;;;;;3.95;3.17;;;;;;;;;;4921619;28;20059;-74
2023/09/08 16:38:36;;;;;;;7.88;3.58;;;;;;;;;;4928300;28;20051;-73
2023/09/08 16:41:02;;;;;;;6.38;3.50;;;;;;;;;;4934642;28;20453;-79
2023/09/08 16:43:32;;;;;;;5.85;3.33;;;24.80;89.90;;;;;;4935541;28;20156;-74
2023/09/08 16:45:59;;;;;;;5.30;3.08;;;;;;;;;;4906200;28;20672;-77
2023/09/08 16:48:27;;;;;;;5.95;3.38;;;;;;;;;;4930102;28;20065;-74
2023/09/08 16:50:53;;;;;;;4.85;3.25;;;;;;;;;;4938957;28;20062;-72
2023/09/08 16:53:19;;;;;;;7.18;3.22;;;;;;;;;;4939060;28;20066;-77
2023/09/08 16:55:45;;;;;;;5.35;3.53;;;;;;;;;;4939129;28;20161;-74
2023/09/08 16:58:12;;;;;;;8.52;3.50;;;;;;;;;;4935972;28;20058;-75
2023/09/08 17:00:38;;;;;;;8.50;3.55;;;;;;;;;;4940286;28;20062;-75
2023/09/08 17:03:04;;;;;;;6.25;3.10;;;;;;;;;;4929176;28;20054;-75
2023/09/08 17:05:30;;;;;;;5.90;3.47;;;;;;;;;;4937990;28;20055;-75
2023/09/08 17:07:56;;;;;;;5.07;2.92;;;;;;;;;;4921799;28;20104;-74
2023/09/08 17:10:23;;;;;;;5.13;3.20;;;;;;;;;;4936614;28;20063;-75
2023/09/08 17:12:49;;;;;;;4.60;3.65;;;;;;;;;;4918746;28;20141;-74
2023/09/08 17:15:15;;;;;;;4.07;3.15;;;;;;;;;;4939523;28;20070;-71
2023/09/08 17:17:41;;;;;;;4.57;2.80;;;;;;;;;;4938671;28;20054;-74
2023/09/08 17:20:07;;;;;;;4.82;3.22;;;24.00;90.80;;;;;;4922219;28;20053;-75
2023/09/08 17:22:34;;;;;;;4.50;3.60;;;23.80;91.20;;;;;;4954193;28;20062;-75
2023/09/08 17:25:00;;;;;;;6.07;3.20;;;;;;;;;;4915637;28;20070;-75
2023/09/08 17:27:27;;;;;;;7.43;4.38;;;;;;;;;;4940000;28;20050;-75
2023/09/08 17:29:53;;;;;;;5.35;3.60;;;;;;;;;;4941557;28;20059;-75
2023/09/08 17:32:19;;;;;;;5.32;3.70;;;;;;;;;;4936936;28;20988;-72
2023/09/08 17:34:46;;;;;;;5.43;3.58;;;;;;;;;;4920548;28;20066;-71
2023/09/08 17:37:12;;;;;;;4.90;3.70;;;;;;;;;;4921456;28;20104;-75
2023/09/08 17:39:38;;;;;;;5.25;3.67;;;23.10;92.80;;;;;;4938018;28;20062;-74
2023/09/08 17:42:04;;;;;;;9.75;3.78;;;;;;;;;;4923407;28;20046;-75
2023/09/08 17:44:30;;;;;;;4.18;3.25;;;23.20;96.50;;;;;;4919424;28;20754;-74
2023/09/08 17:46:57;;;;;;;4.88;4.00;;;;;;;;;;4937167;28;20058;-74
2023/09/08 17:49:23;;;;;;;5.40;3.85;;;;;;;;;;4916465;28;20106;-75
2023/09/08 17:51:50;;;;;;;4.93;3.88;;;;;;;;;;4933892;28;20090;-75
2023/09/08 17:54:16;;;;;;;8.68;4.40;;;;;;;;;;4934198;28;20135;-73
2023/09/08 17:56:42;;;;;;;5.32;4.15;;;;;;;;;;4926038;28;20050;-74
2023/09/08 17:59:09;;;;;;;6.05;3.95;;;;;;;;;;4937567;28;20112;-75
2023/09/08 18:01:36;;;;;;;6.97;3.80;;;;;;;;;;4920843;28;20051;-74
2023/09/08 18:04:03;;;;;;;7.03;4.80;;;;;;;;;;4937429;28;20153;-76
2023/09/08 18:06:29;;;;;;;7.40;5.22;;;;;;;;;;4923998;28;20066;-74
2023/09/08 18:08:56;;;;;;;9.05;4.88;;;;;;;;;;4939857;28;20051;-73
2023/09/08 18:11:22;;;;;;;7.78;4.75;;;;;;;;;;4920570;28;20066;-74
2023/09/08 18:13:48;;;;;;;7.75;5.03;;;;;;;;;;4936613;28;20065;-75
2023/09/08 18:16:14;;;;;;;8.18;5.15;;;;;;;;;;4939200;28;20334;-75
2023/09/08 18:18:42;;;;;;;6.95;4.97;;;;;;;;;;4921107;28;20794;-75
2023/09/08 18:21:10;;;;;;;8.45;4.53;;;;;;;;;;4953501;28;20054;-79
2023/09/08 18:23:37;;;;;;;6.28;4.88;;;;;;;;;;4932188;28;20059;-74
2023/09/08 18:26:03;;;;;;;7.80;5.10;;;;;;;;;;4937477;28;20531;-71
2023/09/08 18:28:29;;;;;;;6.50;5.25;;;;;;;;;;4945931;28;20051;-75
2023/09/08 18:30:56;;;;;;;5.93;5.32;;;;;;;;;;4934459;28;20054;-75
2023/09/08 18:33:25;;;;;;;6.75;4.90;;;21.20;98.10;;;;;;4952263;28;20190;-74
2023/09/08 18:35:51;;;;;;;7.05;5.20;;;21.10;98.50;;;;;;4931518;28;20062;-74
2023/09/08 18:38:17;;;;;;;6.90;5.78;;;;;;;;;;4929019;28;20059;-74
2023/09/08 18:40:45;;;;;;;7.07;5.20;;;;;;;;;;4934816;28;20518;-78
2023/09/08 18:43:11;;;;;;;6.57;5.25;;;;;;;;;;4931711;28;20055;-76
2023/09/08 18:45:37;;;;;;;7.30;5.32;;;;;;;;;;4920118;28;20057;-76
2023/09/08 18:48:03;;;;;;;7.43;5.55;;;;;;;;;;4916122;29;20058;-76
2023/09/08 18:50:29;;;;;;;8.15;5.57;;;;;;;;;;4920176;28;20047;-73
2023/09/08 18:52:56;;;;;;;8.80;5.32;;;;;;;;;;4924086;28;20054;-76
2023/09/08 18:55:22;;;;;;;7.50;5.70;;;;;;;;;;4920878;28;20117;-76
2023/09/08 18:57:49;;;;;;;7.72;5.60;;;;;;;;;;4949009;28;20563;-76
2023/09/08 19:00:16;;;;;;;7.38;5.20;;;;;;;;;;4918216;28;21373;-76
2023/09/08 19:02:42;;;;;;;9.53;5.70;;;;;;;;;;4937896;28;20066;-76
2023/09/08 19:05:09;;;;;;;7.78;5.90;;;;;;;;;;4935683;28;20047;-76
2023/09/08 19:07:35;;;;;;;7.57;5.90;;;;;;;;;;4935491;28;20051;-76
2023/09/08 19:10:02;;;;;;;9.00;4.90;;;;;;;;;;4917195;29;20062;-76
2023/09/08 19:12:28;;;;;;;7.88;6.10;;;;;;;;;;4934645;28;20197;-76
2023/09/08 19:14:55;;;;;;;7.30;6.00;;;;;;;;;;4933046;28;20046;-76
2023/09/08 19:17:21;;;;;;;6.60;5.38;;;;;;;;;;4935247;28;20062;-75
2023/09/08 19:19:47;;;;;;;9.80;5.78;;;;;;;;;;4937550;28;20054;-76
2023/09/08 19:22:14;;;;;;;5.60;5.03;;;;;;;;;;4927434;28;20062;-76
2023/09/08 19:24:47;;;;;;;6.45;5.85;;;;;;;;;;4927708;28;20138;-76
2023/09/08 19:27:13;;;;;;;5.80;4.95;;;;;;;;;;4937287;28;20054;-76
2023/09/08 19:29:39;;;;;;;5.65;5.00;;;;;;;;;;4919501;28;21282;-76
2023/09/08 19:32:06;;;;;;;8.30;6.32;;;19.90;99.90;;;;;;4588646;28;9999979;-76
2023/09/08 19:34:33;;;;;;;8.32;6.72;;;;;;;;;;4932920;28;20055;-75
2023/09/08 19:36:59;;;;;;;7.82;7.05;;;;;;;;;;4933628;28;20051;-76
2023/09/08 19:39:25;;;;;;;9.80;7.13;;;;;;;;;;4935445;28;20054;-75
2023/09/08 19:41:51;;;;;;;7.53;6.55;;;;;;;;;;4934460;28;20733;-76
2023/09/08 19:44:17;;;;;;;8.02;7.18;;;;;;;;;;4917996;28;20089;-75
2023/09/08 19:46:43;;;;;;;14.10;8.68;;;;;;;;;;4931805;28;20061;-76
2023/09/08 19:49:09;;;;;;;8.85;6.70;;;;;;;;;;4928109;28;20058;-76
2023/09/08 19:51:35;;;;;;;7.80;6.32;;;;;;;;;;4937446;28;20054;-75
2023/09/08 19:54:02;;;;;;;8.85;7.32;;;;;;;;;;4929801;28;20054;-75
2023/09/08 19:56:29;;;;;;;9.88;7.72;;;;;;;;;;4920082;28;20480;-75
2023/09/08 19:58:55;;;;;;;8.50;7.50;;;;;;;;;;4926134;28;20467;-76
2023/09/08 20:01:21;;;;;;;9.05;6.88;;;;;;;;;;4929319;28;20077;-75
2023/09/08 20:03:47;;;;;;;11.48;8.88;;;;;;;;;;4915932;28;20090;-76
2023/09/08 20:06:20;;;;;;;11.93;8.27;;;;;;;;;;4931359;28;20058;-76
2023/09/08 20:08:46;;;;;;;8.32;7.25;;;;;;;;;;4925462;28;20079;-76
2023/09/08 20:11:12;;;;;;;15.23;8.00;;;;;;;;;;4930556;28;20139;-76
2023/09/08 20:13:38;;;;;;;11.55;8.48;;;;;;;;;;4933869;28;20595;-76
2023/09/08 20:16:06;;;;;;;8.32;7.53;;;;;;;;;;4934482;28;20058;-75
2023/09/08 20:18:32;;;;;;;10.73;6.45;;;;;;;;;;4930067;28;20440;-76
2023/09/08 20:21:02;;;;;;;8.82;6.85;;;;;;;;;;4932230;28;20132;-76
2023/09/08 20:23:30;;;;;;;8.43;7.00;;;;;;;;;;4917571;28;20051;-75
2023/09/08 20:25:59;;;;;;;9.70;8.10;;;;;;;;;;4917871;28;20050;-76
2023/09/08 20:28:26;;;;;;;7.05;6.40;;;;;;;;;;4933251;28;20477;-76
2023/09/08 20:31:05;;;;;;;8.30;5.90;;;;;;;;;;4933252;28;20038;-76
2023/09/08 20:33:33;;;;;;;9.25;7.00;;;;;;;;;;4908164;28;20539;-77
2023/09/08 20:35:59;;;;;;;9.70;8.55;;;;;;;;;;4920985;28;20061;-77
2023/09/08 20:38:26;;;;;;;11.93;8.80;;;;;;;;;;4926920;28;20057;-77
2023/09/08 20:40:52;;;;;;;9.95;8.88;;;;;;;;;;4934263;28;20059;-76
2023/09/08 20:43:22;;;;;;;13.38;9.75;;;;;;;;;;4927638;28;20058;-77
2023/09/08 20:45:55;;;;;;;12.40;8.18;;;;;;;;;;4917694;28;20054;-75
2023/09/08 20:48:21;;;;;;;10.18;9.07;;;;;;;;;;4946111;28;20059;-76
2023/09/08 20:50:48;;;;;;;9.27;8.35;;;;;;;;;;4918654;28;20110;-76
2023/09/08 20:53:14;;;;;;;11.82;8.90;;;;;;;;;;4919099;28;20061;-76
2023/09/08 20:55:40;;;;;;;9.25;8.30;;;;;;;;;;4934293;28;20137;-76
2023/09/08 20:58:06;;;;;;;10.48;9.07;;;;;;;;;;4938097;28;20055;-76
2023/09/08 21:00:34;;;;;;;11.05;9.32;;;;;;;;;;4935466;28;20051;-76
2023/09/08 21:02:59;;;;;;;9.23;8.05;;;18.00;99.90;;;;;;4933415;28;20843;-77
2023/09/08 21:05:30;;;;;;;11.60;9.98;;;18.10;99.90;;;;;;4937419;28;20057;-77
2023/09/08 21:08:00;;;;;;;11.15;9.68;;;18.60;99.90;;;;;;4913463;28;20073;-77
2023/09/08 21:10:27;;;;;;;10.32;9.23;;;18.00;99.90;;;;;;4885217;28;20201;-77
2023/09/08 21:12:53;;;;;;;8.88;7.97;;;18.00;99.90;;;;;;4932447;28;20150;-77
2023/09/08 21:15:19;;;;;;;8.32;6.55;;;17.90;99.90;;;;;;4935684;28;20069;-77
2023/09/08 21:17:44;;;;;;;7.35;6.65;;;17.80;99.90;;;;;;4935618;28;20051;-77
2023/09/08 21:20:10;;;;;;;7.40;6.70;;;17.80;99.90;;;;;;4937432;28;20093;-78
2023/09/08 21:22:36;;;;;;;6.90;5.95;;;17.70;99.90;;;;;;4933477;28;20526;-79
2023/09/08 21:25:03;;;;;;;8.00;6.20;;;17.70;99.90;;;;;;4936510;28;20051;-78
2023/09/08 21:27:29;;;;;;;8.00;6.90;;;17.70;99.90;;;;;;4933802;28;20055;-77
2023/09/08 21:29:55;;;;;;;11.18;8.20;;;17.60;99.90;;;;;;4931836;28;20118;-78
2023/09/08 21:32:23;;;;;;;8.82;7.93;;;17.60;99.90;;;;;;4932595;28;20055;-77
2023/09/08 21:34:52;;;;;;;13.10;8.88;;;20.20;99.90;;;;;;4933810;28;20047;-78
2023/09/08 21:37:18;;;;;;;10.90;8.07;;;17.50;99.90;;;;;;4922228;28;20067;-77
2023/09/08 21:39:44;;;;;;;11.38;9.63;;;17.30;99.90;;;;;;4949009;28;20077;-77
2023/09/08 21:42:10;;;;;;;9.13;8.23;;;17.30;99.90;;;;;;4925749;28;20146;-77
2023/09/08 21:44:36;;;;;;;13.73;9.70;;;17.40;99.90;;;;;;4908957;28;20123;-78
2023/09/08 21:47:02;;;;;;;11.77;10.00;;;17.40;99.90;;;;;;4936682;28;20066;-77
2023/09/08 21:49:31;;;;;;;11.07;9.98;;;17.30;99.90;;;;;;4933796;28;20043;-77
2023/09/08 21:51:58;;;;;;;12.18;9.40;;;17.30;99.90;;;;;;4930136;28;20059;-79
2023/09/08 21:54:24;;;;;;;11.20;9.07;;;17.20;99.90;;;;;;4936265;28;20141;-78
2023/09/08 21:56:50;;;;;;;9.13;8.23;;;17.20;99.90;;;;;;4936376;28;20094;-79
2023/09/08 21:59:16;;;;;;;8.35;7.55;;;17.10;99.90;;;;;;4935611;28;20157;-78
2023/09/08 22:01:43;;;;;;;7.85;7.05;;;17.10;99.90;;;;;;4920894;28;20058;-77
2023/09/08 22:04:09;;;;;;;8.73;7.10;;;17.10;99.90;;;;;;4935128;28;20072;-78
2023/09/08 22:06:35;;;;;;;7.10;6.40;;;17.00;99.90;;;;;;4936348;28;20051;-78
2023/09/08 22:09:01;;;;;;;7.10;6.40;;;16.90;99.90;;;;;;4931900;28;20194;-78
2023/09/08 22:11:26;;;;;;;7.30;6.60;;;16.80;99.90;;;;;;4934075;28;20432;-78
2023/09/08 22:13:52;;;;;;;11.35;6.70;;;16.90;99.90;;;;;;4938791;28;20153;-78
2023/09/08 22:16:18;;;;;;;8.20;6.15;;;16.90;99.90;;;;;;4936931;28;20756;-77
2023/09/08 22:18:44;;;;;;;6.80;4.80;;;16.90;99.90;;;;;;4931190;28;20073;-77
2023/09/08 22:21:10;;;;;;;7.35;5.60;;;16.90;99.90;;;;;;4934884;28;20496;-79
2023/09/08 22:23:35;;;;;;;5.50;5.00;;;16.80;99.90;;;;;;4911792;28;20061;-78
2023/09/08 22:26:02;;;;;;;4.95;4.45;;;16.80;99.90;;;;;;4935779;28;20062;-80
2023/09/08 22:28:28;;;;;;;5.97;5.32;;;16.70;99.90;;;;;;4936410;28;20133;-79
2023/09/08 22:30:54;;;;;;;7.13;5.60;;;16.60;99.90;;;;;;4933481;28;20089;-79
2023/09/08 22:33:19;;;;;;;8.80;5.93;;;16.70;99.90;;;;;;4933953;28;20055;-79
2023/09/08 22:35:45;;;;;;;7.80;4.82;;;16.70;99.90;;;;;;4934105;28;20816;-78
2023/09/08 22:38:11;;;;;;;7.63;5.55;;;16.60;99.90;;;;;;4934843;28;20043;-80
2023/09/08 22:40:38;;;;;;;8.07;7.25;;;16.60;99.90;;;;;;4930302;28;20042;-78
2023/09/08 22:43:03;;;;;;;8.07;7.03;;;16.60;99.90;;;;;;4918061;28;20062;-79
2023/09/08 22:45:29;;;;;;;16.27;5.88;;;16.10;99.90;;;;;;4936200;28;20104;-80
2023/09/08 22:47:55;;;;;;;5.55;4.82;;;16.50;99.90;;;;;;4918377;28;20999;-80
2023/09/08 22:50:23;;;;;;;3.40;2.78;;;16.50;99.90;;;;;;4931266;28;20063;-81
2023/09/08 22:52:48;;;;;;;6.18;1.98;;;16.50;99.90;;;;;;4932441;28;20716;-79
2023/09/08 22:55:14;;;;;;;2.50;2.08;;;16.40;99.90;;;;;;4937324;28;20173;-81
2023/09/08 22:57:40;;;;;;;2.53;2.00;;;16.40;99.90;;;;;;4932565;28;20061;-79
2023/09/08 23:00:06;;;;;;;3.47;3.17;;;16.40;99.90;;;;;;4933381;28;20086;-79
2023/09/08 23:02:32;;;;;;;2.95;2.65;;;16.30;99.90;;;;;;4922872;28;20069;-82
2023/09/08 23:04:59;;;;;;;3.25;2.95;;;16.30;99.90;;;;;;4929095;28;20873;-80
2023/09/08 23:07:24;;;;;;;1.50;0.90;;;14.40;99.90;;;;;;4921744;28;20058;-79
2023/09/08 23:09:51;;;;;;;7.03;0.82;;;16.20;99.90;;;;;;4937921;28;20867;-82
2023/09/08 23:12:17;;;;;;;2.35;1.40;;;16.10;99.90;;;;;;4936239;28;20059;-82